createdAt,value
2019-02-18T00:05:31.092Z,12.8
2019-02-18T00:15:30.301Z,12.7
2019-02-18T00:25:29.505Z,13.2
2019-02-18T00:35:28.761Z,12.4
2019-02-18T00:45:27.916Z,12.8
2019-02-18T00:55:27.121Z,12.8
2019-02-18T01:05:26.326Z,12.5
2019-02-18T01:15:25.534Z,13.1
2019-02-18T01:25:24.738Z,12.9
2019-02-18T01:35:23.943Z,12.8
2019-02-18T01:45:23.247Z,13.2
2019-02-18T01:55:22.351Z,12.8
2019-02-18T02:05:21.555Z,12.8
2019-02-18T02:15:20.760Z,13.2
2019-02-18T02:25:19.965Z,13.1
2019-02-18T02:35:19.169Z,13.1
2019-02-18T02:45:18.375Z,12.6
2019-02-18T02:55:17.577Z,12.9
2019-02-18T03:05:16.781Z,13.1
2019-02-18T03:15:15.989Z,13.1
2019-02-18T03:25:15.195Z,12.9
2019-02-18T03:35:14.393Z,12.5
2019-02-18T03:45:13.598Z,12.8
2019-02-18T03:55:12.802Z,13.1
2019-02-18T04:05:12.004Z,13
2019-02-18T04:15:11.207Z,13.1
2019-02-18T04:25:10.414Z,12.5
2019-02-18T04:35:09.621Z,13
2019-02-18T04:45:08.850Z,12.4
2019-02-18T04:55:08.040Z,12.7
2019-02-18T05:05:07.251Z,12.5
2019-02-18T05:15:06.463Z,12.9
2019-02-18T05:25:05.669Z,13.1
2019-02-18T05:35:04.878Z,12.7
2019-02-18T05:45:04.095Z,12.7
2019-02-18T05:55:03.294Z,12.7
2019-02-18T06:05:02.497Z,14.3
2019-02-18T06:15:01.707Z,14.4
2019-02-18T06:25:00.911Z,14.7
2019-02-18T06:35:00.303Z,14.6
2019-02-18T06:44:59.320Z,14.7
2019-02-18T06:54:58.536Z,14.4
2019-02-18T07:04:57.733Z,14.7
2019-02-18T07:14:56.935Z,13.8
2019-02-18T07:24:56.138Z,14.5
2019-02-18T07:34:55.349Z,14.6
2019-02-18T07:44:54.566Z,14.2
2019-02-18T07:54:53.746Z,14.7
2019-02-18T08:04:52.950Z,14.7
2019-02-18T08:14:52.160Z,14.7
2019-02-18T08:24:51.364Z,14.4
2019-02-18T08:34:50.565Z,14.5
2019-02-18T08:44:49.769Z,14.7
2019-02-18T08:54:56.174Z,14
2019-02-18T09:04:48.179Z,14.7
2019-02-18T09:14:47.383Z,14.4
2019-02-18T09:24:46.588Z,14.4
2019-02-18T09:34:45.793Z,13.8
2019-02-18T09:44:44.996Z,13.8
2019-02-18T09:54:44.199Z,14.3
2019-02-18T10:04:43.406Z,14.3
2019-02-18T10:14:42.619Z,14.4
2019-02-18T10:24:50.152Z,13.9
2019-02-18T10:34:41.020Z,14
2019-02-18T10:44:40.224Z,14.1
2019-02-18T10:54:39.429Z,14.7
2019-02-18T11:06:02.327Z,13.8
2019-02-18T11:16:01.532Z,14.6
2019-02-18T11:26:00.743Z,14.6
2019-02-18T11:35:59.946Z,14.4
2019-02-18T11:45:59.158Z,14.7
2019-02-18T11:55:58.364Z,14.4
2019-02-18T12:05:57.581Z,14.2
2019-02-18T12:15:56.870Z,14.1
2019-02-18T12:25:56.160Z,14.5
2019-02-18T12:35:55.450Z,14.5
2019-02-18T12:45:54.736Z,13.6
2019-02-18T12:55:54.024Z,13.6
2019-02-18T13:05:53.269Z,13.6
2019-02-18T13:15:52.471Z,13
2019-02-18T13:25:51.674Z,13.4
2019-02-18T13:35:50.878Z,12.7
2019-02-18T13:45:50.082Z,13.2
2019-02-18T13:55:49.286Z,12.8
2019-02-18T14:05:48.488Z,12.6
2019-02-18T14:15:47.690Z,13.2
2019-02-18T14:25:46.895Z,12.5
2019-02-18T14:35:46.098Z,12.9
2019-02-18T14:45:45.299Z,12.7
2019-02-18T14:55:44.502Z,12.5
2019-02-18T15:05:43.705Z,12.8
2019-02-18T15:15:42.908Z,12.7
2019-02-18T15:25:42.110Z,12.5
2019-02-18T15:35:41.314Z,12.6
2019-02-18T15:45:40.516Z,12.9
2019-02-18T15:55:39.720Z,12.9
2019-02-18T16:05:38.921Z,12.9
2019-02-18T16:15:38.127Z,12.8
2019-02-18T16:25:37.328Z,12.8
2019-02-18T16:35:36.535Z,12.4
2019-02-18T16:45:35.748Z,13.2
2019-02-18T16:55:34.953Z,13.2
2019-02-18T17:05:34.165Z,13.2
2019-02-18T17:15:33.367Z,12.5
2019-02-18T17:25:32.580Z,13.1
2019-02-18T17:35:31.790Z,12.6
2019-02-18T17:45:31.001Z,12.6
2019-02-18T17:55:30.212Z,12.5
2019-02-18T18:05:29.420Z,12.8
2019-02-18T18:15:28.631Z,13.2
2019-02-18T18:25:27.840Z,13
2019-02-18T18:35:27.051Z,12.3
2019-02-18T18:45:26.261Z,12.8
2019-02-18T18:55:25.471Z,13.1
2019-02-18T19:05:24.680Z,12.5
2019-02-18T19:15:23.936Z,12.4
2019-02-18T19:25:23.113Z,12.5
2019-02-18T19:35:22.358Z,12.6
2019-02-18T19:45:21.551Z,13.1
2019-02-18T19:55:20.764Z,12.4
2019-02-18T20:05:19.982Z,12.8
2019-02-18T20:15:19.198Z,12.6
2019-02-18T20:25:18.410Z,13.2
2019-02-18T20:35:17.627Z,12.8
2019-02-18T20:45:16.842Z,13
2019-02-18T20:55:16.048Z,13.1
2019-02-18T21:09:01.708Z,12.9
2019-02-18T21:19:00.919Z,12.3
2019-02-18T21:29:00.128Z,12.6
2019-02-18T21:38:59.337Z,13
2019-02-18T21:48:58.544Z,12.9
2019-02-18T21:58:57.754Z,12.7
2019-02-18T22:08:56.965Z,13.2
2019-02-18T22:18:56.250Z,12.7
2019-02-18T22:28:55.541Z,12.9
2019-02-18T22:38:54.831Z,12.7
2019-02-18T22:48:54.117Z,12.6
2019-02-18T22:58:53.456Z,13
2019-02-18T23:08:52.660Z,12.6
2019-02-18T23:18:51.863Z,12.5
2019-02-18T23:28:51.066Z,13
2019-02-18T23:38:50.272Z,13.2
2019-02-18T23:48:49.477Z,13.1
2019-02-18T23:58:48.683Z,13.2
